createdAt,value
2022-09-04T00:04:30.059Z,14.92
2022-09-04T00:09:41.958Z,14.81
2022-09-04T00:14:51.807Z,14.28
2022-09-04T00:20:31.082Z,14.72
2022-09-04T00:25:54.751Z,14.97
2022-09-04T00:31:39.696Z,14.56
2022-09-04T00:36:52.383Z,14.82
2022-09-04T00:42:26.073Z,14.94
2022-09-04T00:47:49.533Z,14.84
2022-09-04T00:53:10.695Z,14.84
2022-09-04T00:58:37.514Z,14.47
2022-09-04T01:03:46.366Z,14.73
2022-09-04T01:09:22.835Z,13.09
2022-09-04T01:14:52.972Z,14.30
2022-09-04T01:20:29.111Z,14.52
2022-09-04T01:25:56.892Z,14.93
2022-09-04T01:31:09.943Z,14.91
2022-09-04T01:36:28.646Z,14.83
2022-09-04T01:41:38.140Z,14.94
2022-09-04T01:47:06.501Z,15.31
2022-09-04T01:52:09.138Z,14.54
2022-09-04T01:57:30.383Z,14.19
2022-09-04T02:02:44.978Z,14.70
2022-09-04T02:08:04.548Z,14.02
2022-09-04T02:13:15.882Z,15.20
2022-09-04T02:18:32.432Z,15.12
2022-09-04T02:23:53.535Z,15.07
2022-09-04T02:29:02.223Z,14.95
2022-09-04T02:34:14.764Z,15.08
2022-09-04T02:39:32.414Z,15.29
2022-09-04T02:45:05.911Z,15.17
2022-09-04T02:50:32.843Z,14.22
2022-09-04T02:56:01.184Z,15.11
2022-09-04T03:01:24.845Z,14.93
2022-09-04T03:06:46.147Z,15.23
2022-09-04T03:12:01.872Z,15.04
2022-09-04T03:17:23.840Z,14.61
2022-09-04T03:23:03.530Z,14.76
2022-09-04T03:28:13.927Z,14.53
2022-09-04T03:33:29.168Z,14.50
2022-09-04T03:38:34.922Z,14.71
2022-09-04T03:43:40.420Z,14.79
2022-09-04T03:48:58.156Z,14.07
2022-09-04T03:54:08.954Z,14.26
2022-09-04T03:59:20.563Z,14.37
2022-09-04T04:04:54.639Z,14.39
2022-09-04T04:10:17.641Z,14.33
2022-09-04T04:15:51.302Z,14.44
2022-09-04T04:21:06.227Z,14.68
2022-09-04T04:26:15.639Z,14.58
2022-09-04T04:31:18.483Z,15.10
2022-09-04T04:36:41.394Z,15.13
2022-09-04T04:42:21.364Z,15.16
2022-09-04T04:48:02.566Z,15.31
2022-09-04T04:53:32.876Z,15.23
2022-09-04T04:59:21.415Z,15.45
2022-09-04T05:04:38.778Z,14.99
2022-09-04T05:09:53.304Z,15.53
2022-09-04T05:15:04.531Z,15.38
2022-09-04T05:20:24.698Z,16.08
2022-09-04T05:26:09.988Z,16.30
2022-09-04T05:31:17.133Z,16.34
2022-09-04T05:36:30.097Z,15.86
2022-09-04T05:41:40.578Z,16.17
2022-09-04T05:47:20.767Z,16.66
2022-09-04T05:52:26.763Z,17.14
2022-09-04T05:57:48.335Z,17.10
2022-09-04T06:02:57.498Z,16.97
2022-09-04T06:08:41.363Z,17.03
2022-09-04T06:13:56.402Z,17.31
2022-09-04T06:19:30.329Z,17.58
2022-09-04T06:24:58.726Z,17.44
2022-09-04T06:30:08.504Z,17.46
2022-09-04T06:35:33.870Z,17.27
2022-09-04T06:40:57.053Z,17.42
2022-09-04T06:46:16.462Z,18.01
2022-09-04T06:52:06.368Z,18.50
2022-09-04T07:02:08.538Z,19.27
2022-09-04T07:07:33.145Z,19.56
2022-09-04T07:12:39.571Z,19.81
2022-09-04T07:18:01.441Z,20.18
2022-09-04T07:23:51.716Z,19.99
2022-09-04T07:34:34.421Z,20.58
2022-09-04T07:39:49.321Z,20.88
2022-09-04T07:45:06.997Z,21.02
2022-09-04T07:50:20.814Z,21.50
2022-09-04T07:55:27.175Z,21.85
2022-09-04T08:00:59.397Z,20.95
2022-09-04T08:06:32.020Z,21.43
2022-09-04T08:11:53.894Z,22.96
2022-09-04T08:17:44.344Z,22.72
2022-09-04T08:23:06.696Z,22.99
2022-09-04T08:28:18.583Z,23.47
2022-09-04T08:33:48.419Z,23.51
2022-09-04T08:39:36.733Z,23.94
2022-09-04T08:45:18.313Z,24.88
2022-09-04T08:50:52.140Z,24.22
2022-09-04T08:56:11.091Z,24.86
2022-09-04T09:01:27.200Z,24.45
2022-09-04T09:06:57.175Z,25.32
2022-09-04T09:16:56.967Z,26.15
2022-09-04T09:22:24.976Z,24.75
2022-09-04T09:27:48.373Z,25.47
2022-09-04T09:37:50.225Z,25.49
2022-09-04T09:43:02.799Z,25.04
2022-09-04T09:48:53.577Z,25.16
2022-09-04T09:54:08.284Z,24.95
2022-09-04T09:59:30.117Z,24.83
2022-09-04T10:05:05.377Z,23.61
2022-09-04T10:10:09.320Z,25.76
2022-09-04T10:35:18.953Z,26.28
2022-09-04T10:40:56.870Z,25.57
2022-09-04T11:26:54.467Z,27.15
2022-09-04T11:32:13.534Z,25.88
2022-09-04T11:37:38.862Z,25.93
2022-09-04T11:43:07.759Z,27.30
2022-09-04T11:48:42.163Z,27.11
2022-09-04T11:54:21.495Z,27.02
2022-09-04T11:59:40.717Z,26.36
2022-09-04T12:04:44.130Z,26.55
2022-09-04T12:10:06.319Z,27.30
2022-09-04T12:15:28.106Z,26.68
2022-09-04T12:31:44.172Z,25.03
2022-09-04T12:37:29.846Z,25.60
2022-09-04T12:42:43.097Z,26.27
2022-09-04T12:48:24.685Z,26.51
2022-09-04T12:53:52.934Z,26.22
2022-09-04T12:59:19.399Z,25.60
2022-09-04T13:04:30.720Z,25.70
2022-09-04T13:09:53.275Z,26.36
2022-09-04T13:15:03.906Z,26.81
2022-09-04T13:20:26.865Z,26.52
2022-09-04T13:25:43.247Z,26.81
2022-09-04T13:31:16.095Z,26.22
2022-09-04T13:36:20.152Z,27.09
2022-09-04T13:41:44.245Z,26.39
2022-09-04T13:46:55.542Z,25.81
2022-09-04T13:52:14.001Z,26.64
2022-09-04T13:57:22.012Z,26.95
2022-09-04T14:02:28.835Z,26.65
2022-09-04T14:07:39.624Z,26.43
2022-09-04T14:13:01.353Z,26.93
2022-09-04T14:18:17.592Z,27.16
2022-09-04T14:23:29.731Z,26.28
2022-09-04T14:28:47.219Z,26.63
2022-09-04T14:34:43.827Z,26.25
2022-09-04T14:40:07.811Z,26.45
2022-09-04T14:45:33.633Z,26.27
2022-09-04T14:50:53.282Z,26.31
2022-09-04T14:56:21.544Z,26.58
2022-09-04T15:01:26.742Z,25.95
2022-09-04T15:07:10.366Z,26.86
2022-09-04T15:12:25.611Z,26.19
2022-09-04T15:17:31.667Z,25.77
2022-09-04T15:22:46.391Z,26.32
2022-09-04T15:28:11.696Z,25.80
2022-09-04T15:43:48.307Z,26.03
2022-09-04T15:49:17.131Z,26.05
2022-09-04T15:54:32.668Z,27.07
2022-09-04T15:59:41.641Z,27.09
2022-09-04T16:05:04.406Z,26.49
2022-09-04T16:15:32.454Z,27.86
2022-09-04T16:20:47.882Z,28.19
2022-09-04T16:25:52.779Z,27.62
2022-09-04T16:31:07.472Z,25.83
2022-09-04T16:36:12.236Z,26.89
2022-09-04T16:41:39.551Z,25.12
2022-09-04T16:47:03.348Z,25.16
2022-09-04T16:52:25.141Z,25.45
2022-09-04T16:57:54.356Z,24.95
2022-09-04T17:03:09.835Z,25.06
2022-09-04T17:08:19.449Z,23.82
2022-09-04T17:13:37.105Z,24.59
2022-09-04T17:18:54.357Z,24.41
2022-09-04T17:29:07.929Z,23.45
2022-09-04T17:29:54.691Z,23.90
2022-09-04T17:40:37.252Z,23.42
2022-09-04T17:41:36.670Z,22.81
2022-09-04T17:46:27.539Z,22.39
2022-09-04T17:51:48.328Z,21.93
2022-09-04T17:57:05.601Z,21.12
2022-09-04T18:02:28.939Z,20.66
2022-09-04T18:08:08.857Z,20.10
2022-09-04T18:13:37.380Z,20.39
2022-09-04T18:18:53.070Z,20.88
2022-09-04T18:24:02.497Z,20.93
2022-09-04T18:31:00.367Z,21.08
2022-09-04T18:37:24.423Z,20.69
2022-09-04T18:40:56.907Z,20.41
2022-09-04T18:50:31.759Z,20.01
2022-09-04T18:51:31.878Z,19.51
2022-09-04T18:56:43.866Z,20.73
2022-09-04T19:01:58.194Z,20.12
2022-09-04T19:07:17.765Z,19.85
2022-09-04T19:12:24.653Z,19.38
2022-09-04T19:17:41.122Z,19.82
2022-09-04T19:22:53.638Z,19.50
2022-09-04T19:28:36.229Z,19.78
2022-09-04T19:33:57.052Z,18.72
2022-09-04T19:45:55.600Z,19.71
2022-09-04T19:46:13.883Z,19.80
2022-09-04T19:53:22.200Z,19.16
2022-09-04T19:55:37.615Z,19.35
2022-09-04T20:00:49.851Z,19.77
2022-09-04T20:06:02.098Z,19.63
2022-09-04T20:11:36.124Z,18.43
2022-09-04T20:16:51.885Z,17.91
2022-09-04T20:22:03.774Z,19.15
2022-09-04T20:27:28.074Z,19.27
2022-09-04T20:32:38.635Z,18.12
2022-09-04T20:37:46.570Z,19.42
2022-09-04T20:42:56.473Z,20.13
2022-09-04T20:52:50.003Z,20.07
2022-09-04T20:54:08.850Z,20.24
2022-09-04T21:03:05.740Z,20.47
2022-09-04T21:05:12.019Z,20.69
2022-09-04T21:10:43.326Z,20.50
2022-09-04T21:15:47.928Z,20.51
2022-09-04T21:21:00.471Z,20.44
2022-09-04T21:26:28.987Z,20.30
2022-09-04T21:32:17.794Z,20.43
2022-09-04T21:37:55.334Z,20.57
2022-09-04T21:43:21.936Z,20.43
2022-09-04T21:48:28.771Z,20.52
2022-09-04T21:54:26.971Z,20.16
2022-09-04T22:02:43.809Z,20.28
2022-09-04T22:05:46.094Z,20.22
2022-09-04T22:13:40.555Z,19.59
2022-09-04T22:16:31.104Z,20.27
2022-09-04T22:22:03.153Z,20.30
2022-09-04T22:27:25.610Z,20.06
2022-09-04T22:32:47.484Z,19.58
2022-09-04T22:38:22.507Z,18.56
2022-09-04T22:43:27.945Z,18.63
2022-09-04T22:49:11.737Z,18.82
2022-09-04T22:54:35.085Z,18.68
2022-09-04T23:00:14.357Z,18.32
2022-09-04T23:05:37.013Z,17.95
2022-09-04T23:13:50.971Z,18.55
2022-09-04T23:17:19.615Z,17.93
2022-09-04T23:26:36.373Z,17.80
2022-09-04T23:27:59.199Z,17.73
2022-09-04T23:33:12.198Z,17.67
2022-09-04T23:38:50.818Z,17.05
2022-09-04T23:44:31.598Z,17.74
2022-09-04T23:50:01.038Z,17.88
2022-09-04T23:55:20.608Z,17.97
